Time;durP1;ratioP1;P1;durP2;ratioP2;P2;SDS_P1;SDS_P2;PMS_P1;PMS_P2;Temp;Humidity;BMP_temperature;BMP_pressure;BME280_temperature;BME280_humidity;BME280_pressure;Samples;Min_cycle;Max_cycle;Signal;HPM_P1;HPM_P2
2022/07/19 00:00:36;;;;;;;2.50;2.30;;;24.50;90.60;;;;;;6174323;28;89109;-64
2022/07/19 00:03:39;;;;;;;3.13;2.78;;;24.40;90.50;;;;;;6172439;28;89488;-64
2022/07/19 00:06:41;;;;;;;2.80;2.50;;;24.40;90.50;;;;;;6192037;28;89535;-64
2022/07/19 00:09:43;;;;;;;2.88;2.60;;;24.40;90.60;;;;;;6169373;28;89344;-64
2022/07/19 00:12:46;;;;;;;3.60;2.65;;;24.50;90.60;;;;;;6172108;28;89341;-64
2022/07/19 00:15:48;;;;;;;2.88;2.60;;;24.40;90.60;;;;;;6168738;28;89207;-64
2022/07/19 00:18:51;;;;;;;2.58;2.38;;;24.40;90.60;;;;;;6182507;28;91320;-64
2022/07/19 00:21:53;;;;;;;2.75;2.50;;;24.40;90.70;;;;;;6165587;28;89441;-64
2022/07/19 00:24:55;;;;;;;2.90;2.70;;;24.40;90.70;;;;;;6174445;28;90026;-64
2022/07/19 00:27:57;;;;;;;2.83;2.60;;;24.50;90.60;;;;;;6177710;28;89059;-64
2022/07/19 00:30:59;;;;;;;3.20;2.90;;;24.50;90.60;;;;;;6182050;28;89076;-64
2022/07/19 00:34:03;;;;;;;3.05;2.70;;;24.40;90.60;;;;;;6163568;28;89349;-64
2022/07/19 00:37:05;;;;;;;3.15;2.85;;;24.40;90.60;;;;;;6173871;28;89037;-64
2022/07/19 00:40:08;;;;;;;3.10;2.80;;;24.50;90.60;;;;;;6182341;28;89085;-64
2022/07/19 00:43:12;;;;;;;3.10;2.80;;;24.40;90.60;;;;;;6160222;28;89084;-64
2022/07/19 00:46:14;;;;;;;2.92;2.63;;;24.50;90.60;;;;;;6171496;28;87264;-64
2022/07/19 00:49:18;;;;;;;4.00;2.83;;;24.40;90.60;;;;;;6157504;28;89330;-64
2022/07/19 00:52:22;;;;;;;3.08;2.75;;;24.40;90.60;;;;;;6157855;28;89173;-64
2022/07/19 00:55:25;;;;;;;3.00;2.75;;;24.50;90.60;;;;;;6157953;28;90025;-64
2022/07/19 00:58:28;;;;;;;3.80;3.00;;;24.50;90.70;;;;;;6175906;28;89056;-64
2022/07/19 01:01:30;;;;;;;3.90;2.80;;;24.40;90.60;;;;;;6164124;28;89069;-64
2022/07/19 01:04:34;;;;;;;4.05;3.08;;;24.40;90.70;;;;;;6174919;28;87959;-64
2022/07/19 01:07:37;;;;;;;3.95;2.85;;;24.50;90.80;;;;;;6165206;28;89410;-64
2022/07/19 01:10:39;;;;;;;3.50;3.20;;;24.50;90.70;;;;;;6174792;28;88614;-64
2022/07/19 01:13:41;;;;;;;3.70;3.40;;;24.40;90.70;;;;;;6160992;28;88152;-64
2022/07/19 01:16:47;;;;;;;3.10;2.80;;;24.40;90.70;;;;;;6163274;28;88317;-64
2022/07/19 01:19:50;;;;;;;3.13;2.83;;;24.50;90.70;;;;;;6162704;28;91333;-64
2022/07/19 01:22:54;;;;;;;3.25;2.95;;;24.40;90.70;;;;;;6169500;28;89382;-64
2022/07/19 01:25:56;;;;;;;3.40;3.10;;;24.40;90.70;;;;;;6173169;28;90348;-64
2022/07/19 01:28:58;;;;;;;3.40;3.10;;;24.40;90.70;;;;;;6164726;28;89044;-64
2022/07/19 01:32:00;;;;;;;3.47;3.17;;;24.40;90.70;;;;;;6169267;28;89199;-64
2022/07/19 01:35:02;;;;;;;3.40;3.10;;;24.50;90.70;;;;;;6162068;28;89100;-64
2022/07/19 01:38:05;;;;;;;4.28;3.22;;;24.40;90.70;;;;;;6164264;28;89099;-64
2022/07/19 01:41:08;;;;;;;4.30;3.60;;;24.50;90.70;;;;;;6171199;28;89118;-64
2022/07/19 01:44:10;;;;;;;3.58;3.28;;;24.40;90.70;;;;;;6166653;28;89101;-64
2022/07/19 01:47:12;;;;;;;3.10;2.90;;;24.40;90.70;;;;;;6170100;28;88502;-64
2022/07/19 01:50:16;;;;;;;3.90;2.97;;;24.40;90.70;;;;;;6155835;28;89431;-64
2022/07/19 01:53:19;;;;;;;5.95;4.30;;;24.40;90.80;;;;;;6155516;28;89142;-64
2022/07/19 01:56:21;;;;;;;3.55;3.25;;;24.40;90.80;;;;;;6179522;28;88957;-64
2022/07/19 01:59:23;;;;;;;3.42;3.13;;;24.40;90.80;;;;;;6179973;28;88993;-64
2022/07/19 02:02:26;;;;;;;3.70;3.40;;;24.40;90.80;;;;;;6170656;28;89076;-64
2022/07/19 02:05:28;;;;;;;3.80;3.50;;;24.40;90.80;;;;;;6156480;28;89356;-64
2022/07/19 02:08:31;;;;;;;3.50;3.20;;;24.50;90.80;;;;;;6160539;28;89066;-64
2022/07/19 02:11:35;;;;;;;3.45;3.15;;;24.40;90.80;;;;;;6164203;28;89504;-64
2022/07/19 02:14:37;;;;;;;3.67;3.38;;;24.40;90.80;;;;;;6170851;28;89150;-64
2022/07/19 02:17:39;;;;;;;3.03;2.83;;;24.40;90.80;;;;;;6167683;28;88343;-64
2022/07/19 02:20:41;;;;;;;3.42;3.10;;;24.40;91.10;;;;;;6161237;28;89057;-64
2022/07/19 02:23:45;;;;;;;3.55;3.25;;;24.40;90.70;;;;;;6157431;28;89064;-64
2022/07/19 02:26:47;;;;;;;3.70;3.20;;;24.40;90.80;;;;;;6159892;28;90057;-64
2022/07/19 02:29:49;;;;;;;4.05;3.65;;;24.40;90.80;;;;;;6163632;28;89122;-64
2022/07/19 02:32:51;;;;;;;3.33;3.00;;;24.40;90.80;;;;;;6165930;28;88363;-64
2022/07/19 02:35:53;;;;;;;3.60;3.30;;;24.40;90.80;;;;;;6160557;28;89287;-64
2022/07/19 02:38:58;;;;;;;3.42;3.13;;;24.40;90.80;;;;;;6172297;28;89632;-64
2022/07/19 02:42:00;;;;;;;3.50;3.20;;;24.40;90.80;;;;;;6172529;28;89239;-64
2022/07/19 02:45:02;;;;;;;3.50;3.20;;;24.40;90.80;;;;;;6167200;28;88967;-64
2022/07/19 02:48:04;;;;;;;3.33;3.03;;;24.40;90.80;;;;;;6177927;28;88332;-64
2022/07/19 02:51:10;;;;;;;3.40;2.95;;;24.40;90.80;;;;;;6179920;28;89099;-64
2022/07/19 02:54:14;;;;;;;3.45;2.90;;;24.40;90.80;;;;;;6164763;28;89093;-64
2022/07/19 02:57:16;;;;;;;3.85;3.40;;;24.40;90.80;;;;;;6161407;28;88858;-64
2022/07/19 03:00:18;;;;;;;3.50;3.20;;;24.40;90.80;;;;;;6183086;28;89051;-64
2022/07/19 03:06:39;;;;;;;3.78;3.47;;;24.40;90.80;;;;;;6173096;28;87306;-64
2022/07/19 03:09:43;;;;;;;3.72;3.00;;;24.40;90.80;;;;;;6170046;28;91801;-64
2022/07/19 03:12:45;;;;;;;3.50;3.20;;;24.40;90.80;;;;;;6170180;28;89281;-64
2022/07/19 03:15:47;;;;;;;3.75;3.05;;;24.40;91.20;;;;;;6169626;28;89106;-63
2022/07/19 03:18:49;;;;;;;3.55;3.25;;;24.40;90.90;;;;;;6169918;28;88260;-64
2022/07/19 03:21:51;;;;;;;3.97;3.55;;;24.30;90.80;;;;;;6180917;28;89110;-64
2022/07/19 03:24:56;;;;;;;3.58;3.28;;;24.40;90.90;;;;;;6165358;28;89188;-64
2022/07/19 03:27:58;;;;;;;3.35;3.05;;;24.40;90.90;;;;;;6171206;28;90154;-64
2022/07/19 03:31:01;;;;;;;3.67;3.33;;;24.40;90.90;;;;;;6159772;28;89403;-64
2022/07/19 03:34:03;;;;;;;3.90;3.20;;;24.40;90.90;;;;;;6173225;28;88192;-64
2022/07/19 03:37:05;;;;;;;3.75;3.40;;;24.40;90.90;;;;;;6174974;28;89413;-64
2022/07/19 03:40:11;;;;;;;3.47;3.17;;;24.40;90.90;;;;;;6182246;28;89157;-64
2022/07/19 03:43:13;;;;;;;3.17;2.90;;;24.40;90.80;;;;;;6182476;28;89049;-64
2022/07/19 03:46:15;;;;;;;3.45;3.15;;;24.40;90.90;;;;;;6170599;28;89007;-63
2022/07/19 03:49:17;;;;;;;3.20;2.90;;;24.40;90.90;;;;;;6171050;28;88474;-63
2022/07/19 03:52:19;;;;;;;3.20;2.90;;;24.40;90.90;;;;;;6179856;28;87983;-63
2022/07/19 03:55:22;;;;;;;3.50;3.20;;;24.40;90.90;;;;;;6181384;28;89114;-63
2022/07/19 03:58:24;;;;;;;3.25;2.95;;;24.40;90.80;;;;;;6178924;28;90038;-64
2022/07/19 04:01:26;;;;;;;3.55;3.20;;;24.40;90.90;;;;;;6170483;28;89118;-64
2022/07/19 04:04:28;;;;;;;3.30;3.00;;;24.40;90.90;;;;;;6181849;28;89170;-64
2022/07/19 04:07:30;;;;;;;3.20;2.90;;;24.40;90.90;;;;;;6182654;28;89113;-64
2022/07/19 04:10:34;;;;;;;3.15;2.85;;;24.40;90.90;;;;;;6168509;28;89868;-64
2022/07/19 04:13:37;;;;;;;3.80;3.10;;;24.40;91.00;;;;;;6171905;28;89040;-64
2022/07/19 04:16:39;;;;;;;3.33;3.03;;;24.40;90.90;;;;;;6170660;28;90128;-63
2022/07/19 04:19:41;;;;;;;3.22;2.92;;;24.40;90.90;;;;;;6162513;28;88290;-64
2022/07/19 04:22:42;;;;;;;3.03;2.83;;;24.40;91.00;;;;;;6168738;28;89162;-63
2022/07/19 04:25:46;;;;;;;3.40;3.10;;;24.40;90.90;;;;;;6168712;28;89111;-64
2022/07/19 04:28:48;;;;;;;3.35;3.00;;;24.30;90.90;;;;;;6176882;28;90225;-64
2022/07/19 04:31:50;;;;;;;4.43;3.10;;;24.40;90.90;;;;;;6170934;28;89017;-63
2022/07/19 04:34:52;;;;;;;3.28;2.97;;;24.40;90.90;;;;;;6182920;28;89288;-64
2022/07/19 04:37:54;;;;;;;2.90;2.70;;;24.30;90.90;;;;;;6159273;28;87946;-64
2022/07/19 04:40:57;;;;;;;3.25;2.95;;;24.40;90.90;;;;;;6178438;28;89153;-64
2022/07/19 04:43:59;;;;;;;2.88;2.67;;;24.40;91.00;;;;;;6179411;28;89208;-64
2022/07/19 04:47:01;;;;;;;3.15;2.85;;;24.30;90.90;;;;;;6169718;28;88243;-64
2022/07/19 04:50:04;;;;;;;3.13;2.83;;;24.30;90.90;;;;;;6180386;28;88750;-64
2022/07/19 04:53:06;;;;;;;2.97;2.67;;;24.30;90.90;;;;;;6169818;28;87834;-64
2022/07/19 04:56:09;;;;;;;3.47;3.17;;;24.40;90.90;;;;;;6158285;28;89490;-64
2022/07/19 04:59:11;;;;;;;3.08;2.65;;;24.40;90.90;;;;;;6157064;28;90251;-64
2022/07/19 05:02:13;;;;;;;3.42;3.13;;;24.40;90.90;;;;;;6170300;28;89165;-64
2022/07/19 05:05:15;;;;;;;3.33;3.03;;;24.40;90.90;;;;;;6172798;28;89118;-63
2022/07/19 05:08:17;;;;;;;3.65;3.30;;;24.40;90.90;;;;;;6180947;28;89305;-64
2022/07/19 05:11:21;;;;;;;3.65;3.30;;;24.40;90.90;;;;;;6177160;28;89346;-64
2022/07/19 05:14:23;;;;;;;4.13;3.38;;;24.50;90.90;;;;;;6175975;28;88301;-64
2022/07/19 05:17:25;;;;;;;4.63;3.63;;;24.40;90.90;;;;;;6180783;28;89179;-63
2022/07/19 05:20:27;;;;;;;3.85;3.45;;;24.40;90.90;;;;;;6181136;28;88356;-67
2022/07/19 05:23:29;;;;;;;3.80;3.28;;;24.50;90.90;;;;;;6180080;28;88107;-66
2022/07/19 05:26:33;;;;;;;3.83;3.20;;;24.40;90.90;;;;;;6160613;28;89444;-64
2022/07/19 05:29:35;;;;;;;3.67;3.38;;;24.40;90.90;;;;;;6161770;28;89302;-64
2022/07/19 05:32:37;;;;;;;3.45;3.15;;;24.40;90.90;;;;;;6160119;28;88347;-64
2022/07/19 05:35:39;;;;;;;3.50;3.10;;;24.40;90.90;;;;;;6162633;28;88926;-63
2022/07/19 05:38:41;;;;;;;3.50;3.20;;;24.50;91.00;;;;;;6177243;28;89141;-64
2022/07/19 05:41:45;;;;;;;3.88;3.35;;;24.50;91.00;;;;;;6183094;28;89076;-64
2022/07/19 05:44:47;;;;;;;3.92;3.53;;;24.50;91.00;;;;;;6185433;28;89187;-64
2022/07/19 05:47:49;;;;;;;3.40;3.10;;;24.50;91.10;;;;;;6173715;28;89175;-64
2022/07/19 05:50:51;;;;;;;3.40;3.10;;;24.50;91.00;;;;;;6184723;28;88298;-64
2022/07/19 05:53:53;;;;;;;3.40;3.10;;;24.50;91.40;;;;;;6164020;28;87925;-64
2022/07/19 05:56:56;;;;;;;3.60;3.30;;;24.50;91.00;;;;;;6161971;28;89565;-64
2022/07/19 05:59:58;;;;;;;3.92;3.35;;;24.50;91.00;;;;;;6167076;28;88905;-64
2022/07/19 06:03:00;;;;;;;4.03;3.45;;;24.50;91.00;;;;;;6182237;28;88365;-64
2022/07/19 06:06:02;;;;;;;3.70;3.40;;;24.50;91.40;;;;;;6173094;28;88338;-64
2022/07/19 06:09:04;;;;;;;3.72;3.42;;;24.50;91.00;;;;;;6173839;28;89423;-64
2022/07/19 06:12:08;;;;;;;3.50;3.20;;;24.40;91.00;;;;;;6172225;28;88058;-64
2022/07/19 06:15:11;;;;;;;3.85;3.28;;;24.50;91.00;;;;;;6171991;28;89438;-64
2022/07/19 06:18:13;;;;;;;3.83;3.50;;;24.50;91.00;;;;;;6175534;28;89155;-64
2022/07/19 06:21:19;;;;;;;4.20;3.53;;;24.50;91.00;;;;;;6177811;28;88972;-64
2022/07/19 06:24:21;;;;;;;4.22;3.40;;;24.50;91.00;;;;;;6176270;28;89096;-64
2022/07/19 06:27:25;;;;;;;4.65;3.55;;;24.50;91.10;;;;;;6172011;28;89005;-64
2022/07/19 06:30:27;;;;;;;3.50;3.20;;;24.50;91.10;;;;;;6180658;28;90021;-64
2022/07/19 06:33:29;;;;;;;3.40;3.10;;;24.50;91.00;;;;;;6173215;28;90177;-64
2022/07/19 06:36:32;;;;;;;3.63;3.25;;;24.60;91.00;;;;;;6182579;28;89007;-64
2022/07/19 06:39:34;;;;;;;4.30;3.85;;;24.50;91.00;;;;;;6163625;28;89123;-64
2022/07/19 06:42:37;;;;;;;3.75;3.35;;;24.60;91.00;;;;;;6184384;28;89197;-64
2022/07/19 06:45:40;;;;;;;3.90;3.45;;;24.50;91.00;;;;;;6182974;28;89684;-64
2022/07/19 06:48:42;;;;;;;4.35;3.30;;;24.50;91.00;;;;;;6171224;28;89912;-64
2022/07/19 06:51:44;;;;;;;4.13;3.50;;;24.50;91.00;;;;;;6170093;28;88309;-64
2022/07/19 06:54:46;;;;;;;4.03;3.20;;;24.50;91.00;;;;;;6183282;28;88924;-63
2022/07/19 06:57:49;;;;;;;3.58;3.28;;;24.50;91.00;;;;;;6171474;28;89143;-64
2022/07/19 07:00:51;;;;;;;3.42;3.13;;;24.50;91.10;;;;;;6182909;28;89993;-64
2022/07/19 07:03:53;;;;;;;4.20;3.25;;;24.50;91.00;;;;;;6182823;28;88949;-64
2022/07/19 07:06:55;;;;;;;3.60;3.30;;;24.50;91.00;;;;;;6181444;28;89139;-64
2022/07/19 07:09:57;;;;;;;3.63;3.33;;;24.50;91.00;;;;;;6182143;28;89258;-64
2022/07/19 07:13:01;;;;;;;3.55;3.10;;;24.50;91.10;;;;;;6182676;28;89112;-64
2022/07/19 07:16:03;;;;;;;3.55;3.25;;;24.50;91.10;;;;;;6180659;28;88162;-64
2022/07/19 07:19:05;;;;;;;3.47;3.17;;;24.60;91.10;;;;;;6163443;28;89186;-64
2022/07/19 07:22:07;;;;;;;3.60;3.30;;;24.50;91.00;;;;;;6182397;28;88463;-64
2022/07/19 07:25:09;;;;;;;3.67;3.05;;;24.60;91.00;;;;;;6174271;28;89205;-64
2022/07/19 07:28:12;;;;;;;3.70;3.38;;;24.60;91.00;;;;;;6179599;28;88003;-64
2022/07/19 07:31:14;;;;;;;3.50;3.20;;;24.60;90.90;;;;;;6169072;28;90037;-64
2022/07/19 07:34:19;;;;;;;3.47;3.17;;;24.60;90.90;;;;;;6182452;28;89153;-64
2022/07/19 07:37:21;;;;;;;3.83;3.00;;;24.60;90.80;;;;;;6169323;28;89026;-63
2022/07/19 07:40:23;;;;;;;3.90;3.30;;;24.60;90.80;;;;;;6181859;28;89080;-64
2022/07/19 07:43:26;;;;;;;3.15;2.78;;;24.50;90.80;;;;;;6183001;28;90172;-64
2022/07/19 07:46:28;;;;;;;3.47;2.90;;;24.50;90.80;;;;;;6181126;28;88512;-64
2022/07/19 07:49:31;;;;;;;4.95;3.10;;;24.60;90.80;;;;;;6169257;28;87945;-64
2022/07/19 07:52:33;;;;;;;3.22;2.83;;;24.60;90.80;;;;;;6181914;28;88321;-64
2022/07/19 07:55:38;;;;;;;3.95;3.25;;;24.60;90.80;;;;;;6168145;28;89753;-64
2022/07/19 07:58:42;;;;;;;3.47;2.80;;;24.60;90.80;;;;;;6169620;28;89040;-64
2022/07/19 08:01:44;;;;;;;3.10;2.80;;;24.60;90.80;;;;;;6181617;28;90063;-64
2022/07/19 08:04:46;;;;;;;4.03;3.08;;;24.60;90.80;;;;;;6168994;28;89413;-64
2022/07/19 08:07:48;;;;;;;3.63;3.20;;;24.60;90.70;;;;;;6170514;28;89036;-64
2022/07/19 08:10:50;;;;;;;3.10;2.80;;;24.60;90.60;;;;;;6170895;28;90178;-64
2022/07/19 08:13:53;;;;;;;2.95;2.70;;;24.60;90.50;;;;;;6172922;28;89325;-64
2022/07/19 08:16:55;;;;;;;3.63;2.80;;;24.60;90.50;;;;;;6172740;28;89027;-64
2022/07/19 08:19:58;;;;;;;3.78;2.80;;;24.60;90.50;;;;;;6179237;28;89181;-64
2022/07/19 08:23:00;;;;;;;5.35;3.05;;;24.60;90.50;;;;;;6174310;28;88682;-64
2022/07/19 08:26:02;;;;;;;3.80;3.00;;;24.60;90.40;;;;;;6168812;28;89150;-65
2022/07/19 08:29:07;;;;;;;3.20;2.90;;;24.60;90.40;;;;;;6183045;28;89083;-64
2022/07/19 08:32:09;;;;;;;3.22;2.72;;;24.60;90.40;;;;;;6181782;28;90035;-64
2022/07/19 08:35:11;;;;;;;4.32;3.20;;;24.60;90.40;;;;;;6181500;28;89076;-64
2022/07/19 08:38:13;;;;;;;4.38;3.03;;;24.60;90.50;;;;;;6181394;28;89047;-64
2022/07/19 08:41:16;;;;;;;3.08;2.60;;;24.60;90.50;;;;;;6181889;28;89445;-64
2022/07/19 08:44:20;;;;;;;2.85;2.60;;;24.60;90.60;;;;;;6183641;28;88998;-64
2022/07/19 08:47:24;;;;;;;2.83;2.63;;;24.60;90.60;;;;;;6172030;28;89089;-64
2022/07/19 08:50:27;;;;;;;3.42;3.05;;;24.60;90.60;;;;;;6170566;28;88009;-64
2022/07/19 08:53:37;;;;;;;2.95;2.65;;;24.60;90.60;;;;;;6176344;28;87340;-64
2022/07/19 09:00:00;;;;;;;3.65;3.00;;;24.60;90.60;;;;;;6176890;28;87179;-64
2022/07/19 09:03:04;;;;;;;5.07;2.70;;;24.60;90.50;;;;;;6175750;28;90088;-64
2022/07/19 09:06:06;;;;;;;3.03;2.78;;;24.60;90.30;;;;;;6174627;28;89941;-64
2022/07/19 09:09:09;;;;;;;3.60;2.95;;;24.60;90.20;;;;;;6179460;28;89068;-64
2022/07/19 09:12:14;;;;;;;2.92;2.63;;;24.60;90.20;;;;;;6180745;28;89541;-64
2022/07/19 09:15:18;;;;;;;3.22;2.90;;;24.60;90.10;;;;;;6158712;28;87941;-64
2022/07/19 09:18:23;;;;;;;4.47;2.88;;;24.60;90.10;;;;;;6169178;28;88211;-64
2022/07/19 09:21:25;;;;;;;3.47;3.17;;;24.60;90.10;;;;;;6179734;28;89376;-64
2022/07/19 09:24:27;;;;;;;2.70;2.50;;;24.60;90.00;;;;;;6167959;28;88381;-64
2022/07/19 09:27:30;;;;;;;3.90;3.15;;;24.60;90.00;;;;;;6170018;28;89218;-64
2022/07/19 09:30:39;;;;;;;3.72;2.80;;;24.60;90.00;;;;;;6173250;28;89220;-64
2022/07/19 09:33:46;;;;;;;3.90;2.75;;;24.60;90.00;;;;;;6163713;28;90103;-65
2022/07/19 09:36:48;;;;;;;3.47;3.00;;;24.60;89.80;;;;;;6164111;28;88509;-64
2022/07/19 09:39:52;;;;;;;3.00;2.70;;;24.60;89.70;;;;;;6179563;28;89088;-67
2022/07/19 09:42:54;;;;;;;2.75;2.55;;;24.60;89.60;;;;;;6164605;28;89092;-67
2022/07/19 09:45:57;;;;;;;3.53;3.03;;;24.60;89.60;;;;;;6169651;28;87968;-64
2022/07/19 09:49:08;;;;;;;3.88;2.95;;;24.60;89.40;;;;;;6168149;28;89043;-64
2022/07/19 09:52:11;;;;;;;3.00;2.70;;;24.60;88.90;;;;;;6167812;28;89063;-65
2022/07/19 09:55:13;;;;;;;5.45;3.10;;;24.70;88.60;;;;;;6174871;28;88350;-64
2022/07/19 09:58:18;;;;;;;4.90;3.10;;;24.60;88.50;;;;;;6174082;28;88996;-64
2022/07/19 10:01:22;;;;;;;4.72;2.50;;;24.70;88.70;;;;;;6180767;28;89373;-64
2022/07/19 10:04:27;;;;;;;3.72;2.70;;;24.60;88.80;;;;;;6165662;28;90228;-65
2022/07/19 10:07:29;;;;;;;2.75;2.55;;;24.60;88.80;;;;;;6164574;28;89454;-65
2022/07/19 10:10:31;;;;;;;3.83;2.60;;;24.60;88.90;;;;;;6173205;28;89340;-65
2022/07/19 10:13:34;;;;;;;2.63;2.42;;;24.60;89.20;;;;;;6179928;28;88181;-64
2022/07/19 10:16:46;;;;;;;3.85;2.67;;;24.60;89.40;;;;;;6174511;28;88822;-64
2022/07/19 10:19:49;;;;;;;3.55;2.45;;;24.60;89.40;;;;;;6179071;28;89972;-64
2022/07/19 10:22:52;;;;;;;2.95;2.40;;;24.70;89.40;;;;;;6172150;28;89095;-67
2022/07/19 10:25:54;;;;;;;3.13;2.45;;;24.70;89.30;;;;;;6158403;28;88676;-67
2022/07/19 10:29:08;;;;;;;3.38;2.47;;;24.70;89.40;;;;;;6161387;28;89153;-64
2022/07/19 10:32:13;;;;;;;4.15;2.63;;;24.70;88.80;;;;;;6173370;28;88017;-65
2022/07/19 10:35:17;;;;;;;2.58;2.38;;;24.70;87.70;;;;;;6179368;28;90045;-64
2022/07/19 10:38:19;;;;;;;3.42;2.60;;;24.70;87.10;;;;;;6182021;28;89187;-64
2022/07/19 10:41:27;;;;;;;2.85;2.42;;;24.70;86.70;;;;;;6177161;28;89213;-64
2022/07/19 10:44:29;;;;;;;3.70;2.40;;;24.70;86.80;;;;;;6171507;28;87968;-64
2022/07/19 10:48:00;;;;;;;3.60;2.40;;;24.70;86.00;;;;;;6180924;28;89050;-64
2022/07/19 10:51:02;;;;;;;2.95;2.63;;;24.70;85.90;;;;;;6169500;28;89069;-64
2022/07/19 10:54:06;;;;;;;2.42;2.22;;;24.70;85.50;;;;;;6179056;28;89090;-64
2022/07/19 10:57:09;;;;;;;5.30;2.67;;;24.70;85.40;;;;;;6175465;28;88402;-65
2022/07/19 11:00:17;;;;;;;2.75;2.25;;;24.70;85.50;;;;;;6183999;28;88222;-65
2022/07/19 11:03:30;;;;;;;2.67;2.33;;;24.70;85.70;;;;;;6180145;28;89150;-64
2022/07/19 11:06:32;;;;;;;2.20;2.00;;;24.70;85.90;;;;;;6179545;28;89220;-64
2022/07/19 11:09:41;;;;;;;3.20;2.20;;;24.70;86.10;;;;;;6178722;28;89351;-65
2022/07/19 11:12:44;;;;;;;3.28;2.00;;;24.70;85.90;;;;;;6182299;28;89133;-64
2022/07/19 11:15:55;;;;;;;2.78;2.28;;;24.70;85.90;;;;;;6171739;28;89171;-64
2022/07/19 11:19:05;;;;;;;2.95;2.30;;;24.70;84.70;;;;;;6159716;28;89807;-65
2022/07/19 11:22:11;;;;;;;2.92;2.30;;;24.70;84.40;;;;;;6166037;28;89091;-65
2022/07/19 11:25:14;;;;;;;2.78;2.47;;;24.70;84.40;;;;;;6164602;28;89548;-65
2022/07/19 11:28:26;;;;;;;2.90;2.40;;;24.70;84.40;;;;;;6157686;28;88599;-65
2022/07/19 11:31:28;;;;;;;4.05;2.22;;;24.70;84.20;;;;;;6159474;28;89049;-65
2022/07/19 11:34:31;;;;;;;3.30;2.25;;;24.70;84.20;;;;;;6172181;28;89060;-65
2022/07/19 11:37:36;;;;;;;3.50;2.30;;;24.70;83.80;;;;;;6173620;28;90411;-65
2022/07/19 11:40:38;;;;;;;3.30;2.40;;;24.70;83.70;;;;;;6182203;28;90458;-65
2022/07/19 11:43:40;;;;;;;4.53;2.30;;;24.70;83.50;;;;;;6182208;28;89280;-65
2022/07/19 11:46:42;;;;;;;2.25;2.05;;;24.70;83.90;;;;;;6170135;28;89094;-65
2022/07/19 11:49:46;;;;;;;3.17;2.28;;;24.70;84.20;;;;;;6194969;28;89149;-65
2022/07/19 11:52:50;;;;;;;2.67;2.10;;;24.70;84.40;;;;;;6180483;28;87919;-65
2022/07/19 11:55:53;;;;;;;2.50;2.13;;;24.70;84.40;;;;;;6180779;28;89337;-65
2022/07/19 11:58:57;;;;;;;2.30;2.10;;;24.70;84.40;;;;;;6182490;28;88263;-65
2022/07/19 12:01:59;;;;;;;2.72;2.40;;;24.80;84.40;;;;;;6171041;28;89150;-64
2022/07/19 12:05:11;;;;;;;3.13;2.05;;;24.70;83.80;;;;;;6180996;28;89100;-65
2022/07/19 12:08:13;;;;;;;3.28;2.03;;;24.70;83.40;;;;;;6181575;28;90089;-65
2022/07/19 12:11:23;;;;;;;2.97;2.50;;;24.80;83.10;;;;;;6180880;28;89366;-65
2022/07/19 12:14:27;;;;;;;3.10;2.47;;;24.70;82.70;;;;;;6168861;28;89420;-65
2022/07/19 12:17:29;;;;;;;4.32;1.98;;;24.80;83.00;;;;;;6181380;28;88749;-65
2022/07/19 12:20:32;;;;;;;3.13;2.30;;;24.70;83.00;;;;;;6181697;28;88077;-65
2022/07/19 12:23:34;;;;;;;3.60;2.20;;;24.70;83.30;;;;;;6170610;28;89046;-64
2022/07/19 12:26:37;;;;;;;4.25;2.00;;;24.70;83.10;;;;;;6168020;28;89158;-65
2022/07/19 12:29:46;;;;;;;3.70;2.33;;;24.80;83.30;;;;;;6176537;28;88502;-64
2022/07/19 12:32:48;;;;;;;3.08;2.15;;;24.70;83.50;;;;;;6164091;28;89299;-65
2022/07/19 12:35:52;;;;;;;2.53;2.00;;;24.70;84.20;;;;;;6190542;28;89126;-65
2022/07/19 12:38:54;;;;;;;3.47;2.08;;;24.80;84.60;;;;;;6170813;28;91037;-65
2022/07/19 12:41:58;;;;;;;3.42;2.30;;;24.80;84.90;;;;;;6167729;28;89102;-65
2022/07/19 12:45:00;;;;;;;4.32;2.30;;;24.80;84.90;;;;;;6173159;28;89163;-65
2022/07/19 12:48:03;;;;;;;2.40;2.20;;;24.80;84.70;;;;;;6181959;28;89240;-65
2022/07/19 12:51:07;;;;;;;2.75;1.90;;;24.70;84.10;;;;;;6179490;28;89040;-65
2022/07/19 12:54:09;;;;;;;2.55;2.08;;;24.70;83.20;;;;;;6171957;28;89493;-65
2022/07/19 12:57:11;;;;;;;3.13;2.20;;;24.70;82.70;;;;;;6178777;28;89038;-64
2022/07/19 13:00:14;;;;;;;2.83;2.10;;;24.80;82.70;;;;;;6177358;28;88629;-64
2022/07/19 13:03:16;;;;;;;3.03;2.10;;;24.70;82.60;;;;;;6173094;28;89822;-64
2022/07/19 13:06:19;;;;;;;3.25;2.30;;;24.80;82.20;;;;;;6161279;28;88844;-65
2022/07/19 13:09:21;;;;;;;2.45;2.08;;;24.80;81.60;;;;;;6170746;28;89996;-65
2022/07/19 13:12:23;;;;;;;2.67;2.47;;;24.80;81.70;;;;;;6170784;28;91505;-65
2022/07/19 13:15:26;;;;;;;2.35;2.15;;;24.80;81.70;;;;;;6175483;28;88983;-64
2022/07/19 13:18:28;;;;;;;2.20;1.92;;;24.80;81.70;;;;;;6173645;28;89563;-65
2022/07/19 13:21:31;;;;;;;2.72;2.10;;;24.80;82.30;;;;;;6180761;28;89316;-65
2022/07/19 13:24:34;;;;;;;2.63;2.00;;;24.80;82.00;;;;;;6166189;28;89130;-65
2022/07/19 13:27:36;;;;;;;4.20;2.60;;;24.80;82.20;;;;;;6168595;28;90551;-65
2022/07/19 13:30:38;;;;;;;2.20;2.00;;;24.80;82.30;;;;;;6166734;28;88721;-65
2022/07/19 13:33:40;;;;;;;2.33;2.13;;;24.80;82.70;;;;;;6177627;28;89074;-65
2022/07/19 13:36:44;;;;;;;4.38;2.13;;;24.80;83.00;;;;;;6184087;28;87935;-65
2022/07/19 13:39:46;;;;;;;2.42;2.20;;;24.80;83.00;;;;;;6166302;28;90015;-65
2022/07/19 13:42:48;;;;;;;4.85;2.22;;;24.80;82.20;;;;;;6172866;28;89108;-65
2022/07/19 13:45:50;;;;;;;4.00;2.22;;;24.80;81.80;;;;;;6177544;28;89115;-64
2022/07/19 13:48:52;;;;;;;2.33;2.13;;;24.80;81.30;;;;;;6166066;28;88905;-64
2022/07/19 13:51:56;;;;;;;2.72;2.15;;;24.80;81.20;;;;;;6178915;28;89062;-65
2022/07/19 13:54:57;;;;;;;3.47;2.13;;;24.80;81.00;;;;;;6174863;28;89108;-64
2022/07/19 13:57:59;;;;;;;2.20;2.00;;;24.80;81.00;;;;;;6179674;28;89089;-65
2022/07/19 14:01:02;;;;;;;2.95;2.17;;;24.80;80.90;;;;;;6182323;28;88422;-65
2022/07/19 14:04:04;;;;;;;2.40;2.05;;;24.80;80.60;;;;;;6181853;28;89091;-65
2022/07/19 14:07:07;;;;;;;2.60;2.25;;;24.80;80.90;;;;;;6173223;28;88993;-65
2022/07/19 14:10:10;;;;;;;2.40;2.20;;;24.80;80.90;;;;;;6183184;28;90534;-65
2022/07/19 14:13:12;;;;;;;2.30;2.10;;;24.80;81.00;;;;;;6181851;28;89174;-65
2022/07/19 14:16:15;;;;;;;2.45;2.20;;;24.90;81.10;;;;;;6172175;28;89197;-65
2022/07/19 14:19:17;;;;;;;2.58;2.17;;;24.80;81.60;;;;;;6182933;28;88111;-65
2022/07/19 14:22:21;;;;;;;2.92;2.20;;;24.80;80.10;;;;;;6172900;28;89118;-65
2022/07/19 14:25:23;;;;;;;3.30;2.10;;;24.80;80.10;;;;;;6167396;28;89276;-65
2022/07/19 14:28:25;;;;;;;2.85;2.20;;;24.80;79.60;;;;;;6187952;28;87782;-64
2022/07/19 14:31:27;;;;;;;4.57;2.60;;;24.80;79.30;;;;;;6172129;28;89311;-65
2022/07/19 14:34:29;;;;;;;3.42;2.42;;;24.80;79.10;;;;;;6171242;28;89042;-65
2022/07/19 14:37:33;;;;;;;4.25;2.42;;;24.80;78.80;;;;;;6184786;28;89157;-65
2022/07/19 14:40:35;;;;;;;3.60;2.50;;;24.90;79.00;;;;;;6180228;28;89143;-65
2022/07/19 14:43:37;;;;;;;4.50;2.30;;;24.90;79.10;;;;;;6180727;28;89077;-65
2022/07/19 14:46:39;;;;;;;3.80;2.38;;;24.90;79.10;;;;;;6170163;28;89415;-65
2022/07/19 14:49:41;;;;;;;3.08;2.22;;;24.80;79.10;;;;;;6179273;28;89011;-65
2022/07/19 14:52:45;;;;;;;2.53;2.33;;;24.90;79.70;;;;;;6167499;28;89350;-65
2022/07/19 14:55:47;;;;;;;2.40;2.10;;;24.80;79.60;;;;;;6169435;28;89321;-65
2022/07/19 14:58:49;;;;;;;3.58;2.13;;;24.80;79.60;;;;;;6179383;28;89086;-65
2022/07/19 15:01:52;;;;;;;4.10;2.22;;;24.90;79.60;;;;;;6166533;28;88249;-64
2022/07/19 15:04:56;;;;;;;2.63;2.22;;;24.90;80.00;;;;;;6180877;28;89148;-65
2022/07/19 15:08:00;;;;;;;2.80;2.33;;;24.90;80.60;;;;;;6183547;28;88895;-65
2022/07/19 15:11:02;;;;;;;2.42;2.20;;;24.90;79.60;;;;;;6175246;28;88980;-65
2022/07/19 15:14:04;;;;;;;3.20;2.47;;;24.90;78.80;;;;;;6183394;28;88288;-65
2022/07/19 15:17:06;;;;;;;2.20;2.00;;;24.90;78.00;;;;;;6183521;28;89379;-64
2022/07/19 15:20:09;;;;;;;3.95;2.40;;;24.90;77.60;;;;;;6177986;28;89063;-65
2022/07/19 15:23:13;;;;;;;3.83;2.60;;;24.90;77.10;;;;;;6167340;28;89080;-64
2022/07/19 15:26:15;;;;;;;5.15;2.47;;;24.90;77.40;;;;;;6160488;28;89101;-65
2022/07/19 15:29:17;;;;;;;3.97;2.60;;;24.90;76.90;;;;;;6162055;28;89126;-65
2022/07/19 15:32:19;;;;;;;5.10;2.80;;;24.90;77.10;;;;;;6182341;28;88413;-65
2022/07/19 15:35:21;;;;;;;3.60;2.53;;;24.90;77.10;;;;;;6170229;28;88978;-65
2022/07/19 15:38:24;;;;;;;2.95;2.17;;;24.90;78.00;;;;;;6195698;28;89342;-65
2022/07/19 15:41:27;;;;;;;2.70;2.30;;;24.90;78.40;;;;;;6181185;28;90207;-65
2022/07/19 15:44:29;;;;;;;3.15;2.30;;;24.90;78.60;;;;;;6190168;28;89056;-64
2022/07/19 15:47:31;;;;;;;2.58;1.90;;;24.90;78.90;;;;;;6193240;28;89415;-64
2022/07/19 15:50:37;;;;;;;3.42;2.42;;;24.90;79.10;;;;;;6187306;28;89147;-64
2022/07/19 15:53:40;;;;;;;5.00;2.50;;;24.90;78.50;;;;;;6169826;28;88993;-65
2022/07/19 15:56:42;;;;;;;3.20;2.60;;;24.90;78.30;;;;;;6179288;28;89061;-64
2022/07/19 15:59:44;;;;;;;3.70;2.25;;;24.90;78.00;;;;;;6172648;28;88983;-65